Cabot Strait: Past 24 Hour Conditions

 

Îles de la Madeleine Airport

07:00 AM AST 22 November 2014
This table is a summary of hourly weather conditions for the past 24 hours.
Date / Time
(AST)
Wind(knots) Conditions Visibility(km) Pressure(kPa) Air tempC) Relative humidity(%) Dew pointC) Wind Chill
22 November 2014
7:00 WNW 21 gust 30 Light Snowshower 24 101.4 -3 60 -10 -11
6:00 WNW 22 gust 28 Light Snowshower 24 101.3 -3 62 -9 -11
5:00 WNW 23 gust 31 N/A N/A 101.2 -3 62 -10 -12
4:00 WNW 25 gust 32 N/A N/A 101.2 -4 62 -10 -13
3:00 WNW 24 gust 33 N/A N/A 101.1 -3 67 -8 -12
2:00 NW 25 gust 33 N/A N/A 101.0 -4 71 -8 -13
1:00 WNW 26 gust 34 N/A N/A 100.9 -3 74 -7 -12
0:00 WNW 23 gust 31 N/A N/A 100.9 -4 86 -6 -13
21 November 2014
23:00 NW 20 gust 35 Light Snowshower 2 100.9 -4 92 -5 -12
22:00 WNW 24 gust 32 Light Snowshower 2 100.8 -4 91 -5 -12
21:00 WNW 24 gust 34 Light Snowshower 6 100.7 -3 87 -5 -11
20:00 NW 24 gust 38 Light Snowshower 5 100.7 -3 86 -5 -12
19:00 NW 26 gust 33 Light Snowshower 24 100.5 -2 66 -7 -10
18:00 WNW 23 gust 29 Light Snowshower 5 100.5 -2 85 -4 -11
17:00 WNW 24 gust 29 Light Snowshower 16 100.4 -1 68 -6 -9
16:00 W 24 gust 31 Light Snowshower 10 100.4 -1 70 -6 -10
15:00 WNW 20 gust 32 Light Snowshower 5 100.3 -1 77 -5 -9
14:00 W 26 gust 32 Light Snowshower 6 100.2 -1 71 -6 -9
13:00 W 25 gust 34 Mostly Cloudy 19 100.2 -1 69 -6 -9
12:00 W 24 gust 32 Light Snowshower 24 100.2 -1 70 -5 -9
11:00 W 25 gust 30 Light Snowshower 24 100.2 -1 73 -5 -9
10:00 WNW 21 gust 26 Mostly Cloudy 19 100.2 -1 86 -3 -9
9:00 WSW 20 gust 25 Mostly Cloudy 16 100.2 0 78 -4 -7
8:00 SW 10 gust 16 Snowshower 0.8 100.3 -1 92 -2 -7
7:00 WSW 5 Light Snowshower 24 100.3 -1 88 -3 -4
 
Map of Atlantic - Newfoundland marine weather areas Southwestern Grand Banks - 44138 Banquereau - 44139 Tail of the Bank - 44140 Nickerson Bank - 44251 Northeast Burgeo Bank - 44255 Blanc-Sablon Airport Cap Whittle Chevery Natashquan Airport Heath Point Miscou Island Grand Étang Ingonish Beach North Mountain St.Paul Island J.A. Douglas McCurdy Sydney Airport Charlottetown Airport East Point North Cape Argentia Bonavista Burgeo Cape Race Corner Brook Daniel's Harbour Englee Ferolle Point La Scie Port aux Basques Rocky Harbour Sagona Island St. Anthony Airport St. John's Int'l Airport St. Lawrence Stephenville Airport Twillingate Winterland Wreckhouse Cartwright Airport Mary's Harbour Grates Cove Pool's Island Marticot Island Long Pond Îles de la Madeleine Airport
Legend: buoyBuoy land stationLand Station